Time;durP1;ratioP1;P1;durP2;ratioP2;P2;SDS_P1;SDS_P2;PMS_P1;PMS_P2;Temp;Humidity;BMP_temperature;BMP_pressure;BME280_temperature;BME280_humidity;BME280_pressure;Samples;Min_cycle;Max_cycle;Signal;HPM_P1;HPM_P2
2022/01/25 00:08:26;;;;;;;;;;;;;;;2.81;100.00;103437.72;5098031;28;19970;-79
2022/01/25 00:30:22;;;;;;;;;;;;;;;2.69;100.00;103447.72;5071677;28;19927;-80
2022/01/25 00:32:45;;;;;;;;;;;;;;;2.69;100.00;103439.91;5096175;28;20368;-81
2022/01/25 00:35:11;;;;;;;;;;;;;;;2.67;100.00;103434.53;5077692;28;20017;-80
2022/01/25 00:37:36;;;;;;;;;;;;;;;2.71;100.00;103435.78;5077324;28;19920;-80
2022/01/25 00:40:01;;;;;;;;;;;;;;;2.69;100.00;103442.53;5075976;28;19969;-80
2022/01/25 00:42:35;;;;;;;;;;;;;;;2.69;100.00;103445.13;5079166;28;20357;-81
2022/01/25 00:45:00;;;;;;;;;;;;;;;2.69;100.00;103438.22;5062937;28;19951;-81
2022/01/25 00:47:26;;;;;;;;;;;;;;;2.73;100.00;103442.06;5072680;28;19931;-82
2022/01/25 00:49:51;;;;;;;;;;;;;;;2.68;100.00;103438.97;5060694;28;19988;-81
2022/01/25 00:52:25;;;;;;;;;;;;;;;2.68;100.00;103444.16;5079311;28;20634;-80
2022/01/25 00:54:52;;;;;;;;;;;;;;;2.66;100.00;103436.97;5078317;28;20025;-81
2022/01/25 00:57:17;;;;;;;;;;;;;;;2.64;100.00;103436.81;5061146;28;20078;-80
2022/01/25 00:59:42;;;;;;;;;;;;;;;2.66;100.00;103431.78;5077489;28;20390;-81
2022/01/25 01:02:15;;;;;;;;;;;;;;;2.66;100.00;103434.38;5070379;28;19916;-80
2022/01/25 01:04:42;;;;;;;;;;;;;;;2.67;100.00;103431.00;5060540;28;19921;-81
2022/01/25 01:07:08;;;;;;;;;;;;;;;2.66;100.00;103424.88;5076060;28;19916;-81
2022/01/25 01:09:37;;;;;;;;;;;;;;;2.67;100.00;103420.59;5070055;28;19920;-80
2022/01/25 01:12:15;;;;;;;;;;;;;;;2.66;100.00;103421.38;5078649;28;19924;-80
2022/01/25 01:43:36;;;;;;;;;;;;;;;2.63;100.00;103421.94;5096247;28;20276;-81
2022/01/25 01:48:50;;;;;;;;;;;;;;;2.69;100.00;103419.09;5095459;28;19920;-81
2022/01/25 01:51:21;;;;;;;;;;;;;;;2.66;100.00;103417.06;5077820;28;19966;-81
2022/01/25 01:53:48;;;;;;;;;;;;;;;2.66;100.00;103418.75;5077952;28;19920;-81
2022/01/25 01:56:13;;;;;;;;;;;;;;;2.67;100.00;103418.00;5076694;28;19931;-80
2022/01/25 01:58:39;;;;;;;;;;;;;;;2.66;100.00;103406.66;5077690;28;19920;-80
2022/01/25 02:01:07;;;;;;;;;;;;;;;2.64;100.00;103409.84;5077677;28;19920;-80
2022/01/25 02:03:36;;;;;;;;;;;;;;;2.67;100.00;103410.19;5078060;28;19921;-80
2022/01/25 02:06:02;;;;;;;;;;;;;;;2.67;100.00;103415.38;5077563;28;19920;-81
2022/01/25 02:08:27;;;;;;;;;;;;;;;2.71;100.00;103409.78;5077244;28;20360;-81
2022/01/25 02:10:52;;;;;;;;;;;;;;;2.74;100.00;103409.19;5077316;28;19959;-80
2022/01/25 02:13:20;;;;;;;;;;;;;;;2.67;100.00;103416.34;5076943;28;19924;-80
2022/01/25 02:15:47;;;;;;;;;;;;;;;2.69;100.00;103406.09;5095189;28;19928;-81
2022/01/25 02:23:52;;;;;;;;;;;;;;;2.65;100.00;103398.69;5095365;28;19927;-80
2022/01/25 02:26:17;;;;;;;;;;;;;;;2.66;100.00;103392.75;5077214;28;20634;-80
2022/01/25 02:28:44;;;;;;;;;;;;;;;2.63;100.00;103398.53;5077226;28;19920;-80
2022/01/25 02:31:10;;;;;;;;;;;;;;;2.65;100.00;103384.00;5076757;28;19924;-80
2022/01/25 02:33:36;;;;;;;;;;;;;;;2.64;100.00;103396.84;5084512;28;19916;-80
2022/01/25 02:36:04;;;;;;;;;;;;;;;2.66;100.00;103379.75;5080105;28;19946;-81
2022/01/25 02:38:31;;;;;;;;;;;;;;;2.67;100.00;103376.34;5073899;28;20339;-80
2022/01/25 02:40:57;;;;;;;;;;;;;;;2.68;100.00;103383.41;5079564;28;19927;-80
2022/01/25 02:43:24;;;;;;;;;;;;;;;2.68;100.00;103386.03;5085364;28;20371;-80
2022/01/25 02:46:06;;;;;;;;;;;;;;;2.67;100.00;103386.75;5078149;28;19924;-80
2022/01/25 02:48:45;;;;;;;;;;;;;;;2.66;100.00;103392.75;5094747;28;19920;-80
2022/01/25 02:51:10;;;;;;;;;;;;;;;2.67;100.00;103384.16;5085622;28;20038;-80
2022/01/25 02:53:36;;;;;;;;;;;;;;;2.64;100.00;103382.19;5072027;28;20081;-80
2022/01/25 02:56:01;;;;;;;;;;;;;;;2.64;100.00;103396.84;5077017;28;19927;-80
2022/01/25 02:58:26;;;;;;;;;;;;;;;2.64;100.00;103396.84;5093938;28;19920;-80
2022/01/25 03:00:51;;;;;;;;;;;;;;;2.65;100.00;103396.09;5087724;28;19928;-81
2022/01/25 03:03:17;;;;;;;;;;;;;;;2.66;100.00;103395.34;5073580;28;19927;-80
2022/01/25 03:05:43;;;;;;;;;;;;;;;2.66;100.00;103403.16;5074477;28;20682;-81
2022/01/25 03:08:11;;;;;;;;;;;;;;;2.64;100.00;103396.84;5093624;28;20422;-81
2022/01/25 03:10:39;;;;;;;;;;;;;;;2.68;100.00;103401.63;5093194;28;19927;-81
2022/01/25 03:13:20;;;;;;;;;;;;;;;2.68;100.00;103401.63;5053573;28;19920;-82
2022/01/25 03:18:23;;;;;;;;;;;;;;;2.68;100.00;103404.22;5074786;28;20019;-81
2022/01/25 03:20:59;;;;;;;;;;;;;;;2.67;100.00;103403.31;5073945;28;19977;-80
2022/01/25 03:23:29;;;;;;;;;;;;;;;2.73;100.00;103397.84;5080950;28;19924;-81
2022/01/25 03:25:54;;;;;;;;;;;;;;;2.74;100.00;103396.19;5096002;28;19999;-81
2022/01/25 03:28:20;;;;;;;;;;;;;;;2.70;100.00;103392.31;5086087;28;19928;-80
2022/01/25 03:30:46;;;;;;;;;;;;;;;2.72;100.00;103392.47;5073934;28;19921;-81
2022/01/25 03:33:13;;;;;;;;;;;;;;;2.71;100.00;103381.16;5073121;28;19924;-81
2022/01/25 03:35:39;;;;;;;;;;;;;;;2.72;100.00;103384.66;5076476;28;20019;-81
2022/01/25 03:38:04;;;;;;;;;;;;;;;2.77;100.00;103392.22;5075849;28;20003;-81
2022/01/25 03:40:30;;;;;;;;;;;;;;;2.78;100.00;103386.28;5077021;28;19916;-81
2022/01/25 03:42:59;;;;;;;;;;;;;;;2.80;100.00;103384.75;5059557;28;20314;-81
2022/01/25 03:45:30;;;;;;;;;;;;;;;2.76;100.00;103384.25;5076525;28;19926;-81
2022/01/25 03:50:36;;;;;;;;;;;;;;;2.75;100.00;103388.53;5094654;28;19941;-81
2022/01/25 03:53:10;;;;;;;;;;;;;;;2.74;100.00;103384.09;5076075;28;20019;-81
2022/01/25 03:55:36;;;;;;;;;;;;;;;2.75;100.00;103380.75;5094889;28;19927;-81
2022/01/25 03:58:02;;;;;;;;;;;;;;;2.74;100.00;103394.50;5075751;28;19920;-81
2022/01/25 04:00:27;;;;;;;;;;;;;;;2.75;100.00;103385.00;5076595;28;19928;-81
2022/01/25 04:02:59;;;;;;;;;;;;;;;2.80;100.00;103387.34;5075596;28;19927;-81
2022/01/25 04:05:35;;;;;;;;;;;;;;;2.85;100.00;103388.75;5076581;28;19920;-81
2022/01/25 04:08:03;;;;;;;;;;;;;;;2.82;100.00;103384.91;5076548;28;19927;-81
2022/01/25 04:10:28;;;;;;;;;;;;;;;2.81;100.00;103380.47;5076149;28;19927;-80
2022/01/25 04:12:55;;;;;;;;;;;;;;;2.78;100.00;103383.66;5095992;28;20479;-81
2022/01/25 04:15:21;;;;;;;;;;;;;;;2.82;100.00;103378.00;5080060;28;19916;-81
2022/01/25 04:17:51;;;;;;;;;;;;;;;2.81;100.00;103368.38;5097859;28;19934;-81
2022/01/25 04:20:22;;;;;;;;;;;;;;;2.80;100.00;103370.81;5083392;28;19916;-81
2022/01/25 04:25:31;;;;;;;;;;;;;;;2.82;100.00;103374.50;5098020;28;20006;-81
2022/01/25 04:27:57;;;;;;;;;;;;;;;2.84;100.00;103368.72;5097368;28;19920;-81
2022/01/25 04:30:22;;;;;;;;;;;;;;;2.83;100.00;103364.25;5079776;28;19920;-81
2022/01/25 04:32:52;;;;;;;;;;;;;;;2.87;100.00;103373.31;5091356;28;19974;-81
2022/01/25 04:49:17;;;;;;;;;;;;;;;2.80;100.00;103371.72;5097209;28;19927;-81
2022/01/25 04:57:04;;;;;;;;;;;;;;;2.85;100.00;103364.44;5097412;28;19952;-80
2022/01/25 04:59:52;;;;;;;;;;;;;;;2.83;100.00;103358.16;5079490;28;19924;-80
2022/01/25 05:02:47;;;;;;;;;;;;;;;2.84;100.00;103357.38;5096577;28;19977;-80
2022/01/25 05:05:19;;;;;;;;;;;;;;;2.88;100.00;103356.94;5038689;28;19929;-81
2022/01/25 05:10:14;;;;;;;;;;;;;;;2.88;100.00;103359.53;5055398;28;19920;-81
2022/01/25 05:12:47;;;;;;;;;;;;;;;2.85;100.00;103354.94;5075744;28;19932;-81
2022/01/25 05:18:00;;;;;;;;;;;;;;;2.87;100.00;103348.22;5097053;28;20007;-81
2022/01/25 05:23:10;;;;;;;;;;;;;;;2.86;100.00;103348.97;5078974;28;19927;-81
2022/01/25 05:25:35;;;;;;;;;;;;;;;2.87;100.00;103345.63;5077642;28;19926;-80
2022/01/25 05:28:01;;;;;;;;;;;;;;;2.86;100.00;103346.38;5078492;28;20010;-80
2022/01/25 05:30:26;;;;;;;;;;;;;;;2.85;100.00;103348.81;5078264;28;19920;-79
2022/01/25 05:32:52;;;;;;;;;;;;;;;2.85;100.00;103343.59;5076280;28;20363;-81
2022/01/25 05:35:17;;;;;;;;;;;;;;;2.82;100.00;103351.09;5058149;28;19924;-81
2022/01/25 05:37:43;;;;;;;;;;;;;;;2.85;100.00;103348.81;5058527;28;19995;-81
2022/01/25 05:40:26;;;;;;;;;;;;;;;2.86;100.00;103343.78;5057898;28;20062;-80
2022/01/25 05:45:56;;;;;;;;;;;;;;;2.89;100.00;103348.41;5076089;28;20015;-81
2022/01/25 05:48:22;;;;;;;;;;;;;;;2.87;100.00;103356.03;5058141;28;19921;-80
2022/01/25 05:50:48;;;;;;;;;;;;;;;2.86;100.00;103348.97;5058230;28;19921;-80
2022/01/25 05:53:14;;;;;;;;;;;;;;;2.92;100.00;103352.97;5057646;28;19997;-81
2022/01/25 05:55:39;;;;;;;;;;;;;;;2.90;100.00;103354.50;5058578;28;19932;-81
2022/01/25 05:58:05;;;;;;;;;;;;;;;2.95;100.00;103358.50;5058836;28;19924;-81
2022/01/25 06:00:30;;;;;;;;;;;;;;;2.92;100.00;103355.59;5059381;28;19963;-81
2022/01/25 06:03:01;;;;;;;;;;;;;;;2.88;100.00;103357.84;5059034;28;20011;-79
2022/01/25 06:05:27;;;;;;;;;;;;;;;2.90;100.00;103363.22;5057822;28;19943;-80
2022/01/25 06:07:52;;;;;;;;;;;;;;;2.89;100.00;103358.81;5045351;28;19920;-80
2022/01/25 06:10:18;;;;;;;;;;;;;;;2.88;100.00;103357.84;5041688;28;19927;-81
2022/01/25 06:12:44;;;;;;;;;;;;;;;2.87;100.00;103374.25;5052921;28;19920;-80
2022/01/25 06:15:10;;;;;;;;;;;;;;;2.86;100.00;103371.47;5078102;28;19919;-80
2022/01/25 06:17:35;;;;;;;;;;;;;;;2.84;100.00;103371.31;5067473;28;19932;-80
2022/01/25 06:20:01;;;;;;;;;;;;;;;2.87;100.00;103356.03;5052948;28;20292;-80
2022/01/25 06:22:28;;;;;;;;;;;;;;;2.95;100.00;103368.94;5075243;28;19942;-80
2022/01/25 06:24:53;;;;;;;;;;;;;;;2.95;100.00;103358.50;5058517;28;19921;-80
2022/01/25 06:27:18;;;;;;;;;;;;;;;2.97;100.00;103364.81;5040763;28;19968;-80
2022/01/25 06:29:44;;;;;;;;;;;;;;;2.96;100.00;103376.00;5042177;28;19921;-80
2022/01/25 06:32:12;;;;;;;;;;;;;;;2.93;100.00;103373.06;5041415;28;19925;-81
2022/01/25 06:34:37;;;;;;;;;;;;;;;2.89;100.00;103369.22;5061544;28;19920;-81
2022/01/25 06:37:02;;;;;;;;;;;;;;;2.90;100.00;103371.03;5073590;28;19931;-81
2022/01/25 06:39:28;;;;;;;;;;;;;;;2.86;100.00;103366.28;5079428;28;20312;-82
2022/01/25 06:41:54;;;;;;;;;;;;;;;2.88;100.00;103373.47;5072138;28;19931;-81
2022/01/25 06:44:19;;;;;;;;;;;;;;;2.84;100.00;103363.50;5074846;28;19924;-82
2022/01/25 06:46:46;;;;;;;;;;;;;;;2.87;100.00;103365.50;5052698;28;19920;-81
2022/01/25 06:49:12;;;;;;;;;;;;;;;2.92;100.00;103373.81;5068987;28;19927;-82
2022/01/25 06:51:37;;;;;;;;;;;;;;;2.91;100.00;103374.59;5079798;28;19920;-82
2022/01/25 06:54:03;;;;;;;;;;;;;;;2.88;100.00;103372.56;5097814;28;19920;-81
2022/01/25 06:56:29;;;;;;;;;;;;;;;2.90;100.00;103365.81;5077957;28;19920;-81
2022/01/25 06:58:54;;;;;;;;;;;;;;;2.92;100.00;103369.53;5057550;28;19970;-82
2022/01/25 07:01:19;;;;;;;;;;;;;;;2.93;100.00;103375.66;5040068;28;19952;-81
2022/01/25 07:03:47;;;;;;;;;;;;;;;2.99;100.00;103382.44;5042283;28;19927;-82
2022/01/25 07:06:12;;;;;;;;;;;;;;;2.93;100.00;103375.66;5070106;28;19916;-80
2022/01/25 07:08:38;;;;;;;;;;;;;;;2.92;100.00;103371.19;5098372;28;19920;-81
2022/01/25 07:11:03;;;;;;;;;;;;;;;2.90;100.00;103373.63;5074535;28;19936;-81
2022/01/25 07:13:28;;;;;;;;;;;;;;;2.92;100.00;103373.81;5060660;28;19924;-80
2022/01/25 07:15:54;;;;;;;;;;;;;;;2.88;100.00;103381.28;5064552;28;19932;-82
2022/01/25 07:18:19;;;;;;;;;;;;;;;2.93;100.00;103386.06;5075590;28;19932;-82
2022/01/25 07:20:44;;;;;;;;;;;;;;;2.89;100.00;103392.63;5074782;28;20346;-83
2022/01/25 07:23:09;;;;;;;;;;;;;;;2.80;100.00;103383.84;5076694;28;20438;-80
2022/01/25 07:25:36;;;;;;;;;;;;;;;2.85;100.00;103382.66;5079913;28;19954;-80
2022/01/25 07:28:02;;;;;;;;;;;;;;;2.84;100.00;103384.34;5071640;28;19920;-80
2022/01/25 07:30:27;;;;;;;;;;;;;;;2.86;100.00;103388.00;5056597;28;19920;-81
2022/01/25 07:32:53;;;;;;;;;;;;;;;2.88;100.00;103394.28;5068133;28;19932;-81
2022/01/25 07:35:18;;;;;;;;;;;;;;;2.86;100.00;103398.44;5082356;28;20276;-81
2022/01/25 07:37:44;;;;;;;;;;;;;;;2.87;100.00;103387.28;5075826;28;19925;-81
2022/01/25 07:40:11;;;;;;;;;;;;;;;2.87;100.00;103400.28;5082298;28;19931;-81
2022/01/25 07:42:39;;;;;;;;;;;;;;;2.88;100.00;103394.28;5082502;28;19920;-81
2022/01/25 07:45:08;;;;;;;;;;;;;;;2.92;100.00;103389.41;5076219;28;19921;-80
2022/01/25 07:47:37;;;;;;;;;;;;;;;2.89;100.00;103390.03;5079699;28;20568;-81
2022/01/25 07:50:03;;;;;;;;;;;;;;;2.85;100.00;103393.97;5072333;28;20426;-80
2022/01/25 07:52:30;;;;;;;;;;;;;;;2.84;100.00;103392.16;5061857;28;19920;-81
2022/01/25 07:54:56;;;;;;;;;;;;;;;2.96;100.00;103389.91;5078045;28;19923;-80
2022/01/25 07:57:23;;;;;;;;;;;;;;;2.86;100.00;103390.63;5071569;28;19984;-81
2022/01/25 07:59:49;;;;;;;;;;;;;;;2.83;100.00;103385.06;5085120;28;19920;-81
2022/01/25 08:02:17;;;;;;;;;;;;;;;2.84;100.00;103386.94;5103578;28;19978;-80
2022/01/25 08:04:43;;;;;;;;;;;;;;;2.88;100.00;103386.50;5084702;28;19924;-80
2022/01/25 08:07:08;;;;;;;;;;;;;;;2.96;100.00;103386.41;5073673;28;19942;-81
2022/01/25 08:09:34;;;;;;;;;;;;;;;2.92;100.00;103385.16;5083597;28;19963;-80
2022/01/25 08:11:59;;;;;;;;;;;;;;;2.95;100.00;103385.50;5065180;28;19925;-80
2022/01/25 08:14:25;;;;;;;;;;;;;;;2.94;100.00;103380.13;5082619;28;19969;-81
2022/01/25 08:16:51;;;;;;;;;;;;;;;2.97;100.00;103380.44;5086631;28;19967;-81
2022/01/25 08:19:16;;;;;;;;;;;;;;;2.92;100.00;103379.97;5081729;28;19924;-81
2022/01/25 08:21:42;;;;;;;;;;;;;;;2.98;100.00;103385.81;5083391;28;19920;-81
2022/01/25 08:24:08;;;;;;;;;;;;;;;2.93;100.00;103388.69;5061448;28;19959;-80
2022/01/25 08:26:33;;;;;;;;;;;;;;;2.94;100.00;103381.03;5044544;28;19925;-80
2022/01/25 08:28:59;;;;;;;;;;;;;;;2.91;100.00;103377.19;5042381;28;20015;-81
2022/01/25 08:31:24;;;;;;;;;;;;;;;2.87;100.00;103381.13;5064426;28;20003;-81
2022/01/25 08:33:51;;;;;;;;;;;;;;;2.86;100.00;103374.09;5082099;28;20387;-81
2022/01/25 08:36:16;;;;;;;;;;;;;;;2.85;100.00;103375.75;5064562;28;19927;-81
2022/01/25 08:38:42;;;;;;;;;;;;;;;2.86;100.00;103377.59;5064215;28;19920;-82
2022/01/25 08:41:07;;;;;;;;;;;;;;;2.88;100.00;103380.38;5063146;28;20334;-81
2022/01/25 08:43:35;;;;;;;;;;;;;;;2.87;100.00;103375.91;5064580;28;20019;-81
2022/01/25 08:46:00;;;;;;;;;;;;;;;2.86;100.00;103374.09;5063731;28;19924;-81
2022/01/25 08:48:26;;;;;;;;;;;;;;;2.88;100.00;103377.75;5060710;28;19924;-82
2022/01/25 08:50:51;;;;;;;;;;;;;;;2.93;100.00;103375.66;5070918;28;19928;-82
2022/01/25 08:53:20;;;;;;;;;;;;;;;2.89;100.00;103374.41;5063274;28;19920;-82
2022/01/25 08:55:46;;;;;;;;;;;;;;;2.95;100.00;103380.28;5053972;28;19923;-81
2022/01/25 08:58:11;;;;;;;;;;;;;;;2.97;100.00;103380.44;5072472;28;20019;-81
2022/01/25 09:00:36;;;;;;;;;;;;;;;2.91;100.00;103382.41;5055644;28;20422;-81
2022/01/25 09:03:03;;;;;;;;;;;;;;;3.02;100.00;103387.97;5061346;28;19917;-81
2022/01/25 09:05:29;;;;;;;;;;;;;;;3.08;100.00;103394.59;5059366;28;19920;-82
2022/01/25 09:07:56;;;;;;;;;;;;;;;3.09;100.00;103386.94;5074867;28;19970;-81
2022/01/25 09:10:22;;;;;;;;;;;;;;;3.12;100.00;103388.94;5061195;28;19927;-81
2022/01/25 09:12:47;;;;;;;;;;;;;;;3.05;100.00;103396.09;5059525;28;19925;-81
2022/01/25 09:15:12;;;;;;;;;;;;;;;3.08;100.00;103386.78;5061014;28;19982;-81
2022/01/25 09:17:37;;;;;;;;;;;;;;;3.08;100.00;103392.94;5061034;28;20241;-80
2022/01/25 09:20:03;;;;;;;;;;;;;;;3.16;100.00;103399.88;5060501;28;20011;-81
2022/01/25 09:22:28;;;;;;;;;;;;;;;3.14;100.00;103401.38;5059683;28;19921;-81
2022/01/25 09:24:54;;;;;;;;;;;;;;;3.16;100.00;103396.34;5061161;28;20007;-81
2022/01/25 09:27:19;;;;;;;;;;;;;;;3.21;100.00;103392.53;5070891;28;19967;-81
2022/01/25 09:29:44;;;;;;;;;;;;;;;3.15;100.00;103403.22;5080095;28;19985;-81
2022/01/25 09:32:19;;;;;;;;;;;;;;;3.19;100.00;103402.78;5068191;28;19927;-82
2022/01/25 09:34:45;;;;;;;;;;;;;;;3.15;100.00;103399.69;5069470;28;20421;-81
2022/01/25 09:37:10;;;;;;;;;;;;;;;3.01;100.00;103399.13;5084424;28;19923;-82
2022/01/25 09:39:35;;;;;;;;;;;;;;;3.05;100.00;103410.81;5083350;28;20061;-81
2022/01/25 09:42:08;;;;;;;;;;;;;;;3.15;100.00;103411.03;5086368;28;19920;-81
2022/01/25 09:44:36;;;;;;;;;;;;;;;3.20;100.00;103411.53;5075441;28;20284;-82
2022/01/25 09:47:01;;;;;;;;;;;;;;;3.12;100.00;103410.69;5078892;28;19921;-81
2022/01/25 09:49:27;;;;;;;;;;;;;;;3.16;100.00;103409.38;5067644;28;19920;-82
2022/01/25 09:51:54;;;;;;;;;;;;;;;3.12;100.00;103415.91;5062955;28;20291;-82
2022/01/25 09:54:20;;;;;;;;;;;;;;;3.18;100.00;103419.16;5061025;28;20415;-81
2022/01/25 09:56:45;;;;;;;;;;;;;;;3.21;100.00;103422.09;5068702;28;19921;-81
2022/01/25 09:59:11;;;;;;;;;;;;;;;3.11;100.00;103424.50;5060303;28;20364;-80
2022/01/25 10:01:37;;;;;;;;;;;;;;;3.13;100.00;103427.25;5062396;28;19924;-80
2022/01/25 10:04:23;;;;;;;;;;;;;;;3.12;100.00;103428.91;5060665;28;19921;-81
2022/01/25 10:06:49;;;;;;;;;;;;;;;3.05;100.00;103442.06;5057464;28;19944;-80
2022/01/25 10:09:15;;;;;;;;;;;;;;;3.16;100.00;103435.41;5059827;28;19921;-82
2022/01/25 10:11:40;;;;;;;;;;;;;;;3.20;100.00;103435.91;5059836;28;20088;-80
2022/01/25 10:14:06;;;;;;;;;;;;;;;3.09;100.00;103433.81;5061597;28;19917;-81
2022/01/25 10:16:35;;;;;;;;;;;;;;;3.08;100.00;103434.56;5060827;28;19928;-81
2022/01/25 10:19:02;;;;;;;;;;;;;;;3.15;100.00;103437.06;5060532;28;19921;-82
2022/01/25 10:21:35;;;;;;;;;;;;;;;3.24;100.00;103448.47;5060538;28;19917;-81
2022/01/25 10:24:05;;;;;;;;;;;;;;;3.17;100.00;103445.97;5060757;28;19928;-80
2022/01/25 10:26:34;;;;;;;;;;;;;;;3.29;100.00;103445.44;5047325;28;19944;-81
2022/01/25 10:28:59;;;;;;;;;;;;;;;3.33;100.00;103445.03;5039626;28;20440;-82
2022/01/25 10:31:45;;;;;;;;;;;;;;;3.34;100.00;103442.59;5055136;28;20064;-82
2022/01/25 10:34:11;;;;;;;;;;;;;;;3.42;100.00;103444.31;5065675;28;19936;-82
2022/01/25 10:36:45;;;;;;;;;;;;;;;3.44;100.00;103452.28;5076728;28;19939;-82
2022/01/25 10:39:11;;;;;;;;;;;;;;;3.45;100.00;103446.34;5079464;28;20011;-82
2022/01/25 10:41:38;;;;;;;;;;;;;;;3.38;100.00;103457.75;5074910;28;19926;-82
2022/01/25 10:44:05;;;;;;;;;;;;;;;3.36;100.00;103460.97;5073749;28;20411;-81
2022/01/25 10:46:32;;;;;;;;;;;;;;;3.41;100.00;103458.09;5068045;28;20009;-81
2022/01/25 10:49:02;;;;;;;;;;;;;;;3.39;100.00;103451.81;5073776;28;19987;-81
2022/01/25 10:51:29;;;;;;;;;;;;;;;3.49;100.00;103456.31;5075596;28;19935;-82
2022/01/25 10:54:12;;;;;;;;;;;;;;;3.33;100.00;103460.66;5075909;28;19924;-81
2022/01/25 10:56:38;;;;;;;;;;;;;;;3.34;100.00;103455.59;5074740;28;19921;-81
2022/01/25 10:59:05;;;;;;;;;;;;;;;3.24;100.00;103451.06;5073650;28;19921;-81
2022/01/25 11:01:34;;;;;;;;;;;;;;;3.24;100.00;103448.47;5071270;28;20469;-81
2022/01/25 11:04:06;;;;;;;;;;;;;;;3.08;100.00;103442.38;5076152;28;19930;-81
2022/01/25 11:06:31;;;;;;;;;;;;;;;3.34;100.00;103446.84;5075699;28;19921;-81
2022/01/25 11:09:01;;;;;;;;;;;;;;;3.31;100.00;103444.88;5076356;28;19928;-81
2022/01/25 11:11:33;;;;;;;;;;;;;;;3.36;100.00;103445.34;5075503;28;19997;-82
2022/01/25 11:14:50;;;;;;;;;;;;;;;3.36;100.00;103453.16;5075134;28;19920;-81
2022/01/25 11:16:48;;;;;;;;;;;;;;;3.26;100.00;103451.22;5076329;28;19920;-81
2022/01/25 11:19:13;;;;;;;;;;;;;;;3.30;100.00;103458.63;5074974;28;19921;-81
2022/01/25 11:21:39;;;;;;;;;;;;;;;3.37;100.00;103450.72;5074108;28;19920;-81
2022/01/25 11:24:04;;;;;;;;;;;;;;;3.37;100.00;103444.56;5075130;28;20011;-81
2022/01/25 11:26:30;;;;;;;;;;;;;;;3.38;100.00;103447.34;5074209;28;19928;-81
2022/01/25 11:28:56;;;;;;;;;;;;;;;3.48;100.00;103445.72;5073974;28;19928;-82
2022/01/25 11:31:23;;;;;;;;;;;;;;;3.45;100.00;103442.78;5075495;28;20288;-81
2022/01/25 11:33:51;;;;;;;;;;;;;;;3.58;100.00;103445.94;5076027;28;19925;-81
2022/01/25 11:36:16;;;;;;;;;;;;;;;3.66;100.00;103433.72;5075682;28;19927;-81
2022/01/25 11:38:49;;;;;;;;;;;;;;;3.63;100.00;103446.44;5076335;28;19920;-82
2022/01/25 11:41:16;;;;;;;;;;;;;;;3.74;100.00;103443.25;5075048;28;19921;-82
2022/01/25 11:43:43;;;;;;;;;;;;;;;3.62;100.00;103426.34;5069788;28;19996;-81
2022/01/25 11:46:08;;;;;;;;;;;;;;;3.52;100.00;103441.00;5075062;28;19928;-82
2022/01/25 11:48:36;;;;;;;;;;;;;;;3.58;100.00;103436.44;5075882;28;19924;-81
2022/01/25 11:51:02;;;;;;;;;;;;;;;3.54;100.00;103428.13;5075152;28;19920;-81
2022/01/25 11:53:30;;;;;;;;;;;;;;;3.54;100.00;103430.72;5075399;28;19935;-81
2022/01/25 11:55:56;;;;;;;;;;;;;;;3.50;100.00;103423.38;5087457;28;19920;-81
2022/01/25 11:58:21;;;;;;;;;;;;;;;3.34;100.00;103423.41;5081305;28;19993;-81
2022/01/25 12:00:51;;;;;;;;;;;;;;;3.44;100.00;103421.03;5083430;28;19920;-81
2022/01/25 12:03:35;;;;;;;;;;;;;;;3.49;100.00;103419.81;5095013;28;19920;-82
2022/01/25 12:06:02;;;;;;;;;;;;;;;3.32;100.00;103418.03;5095120;28;19977;-81
2022/01/25 12:08:38;;;;;;;;;;;;;;;3.24;100.00;103416.31;5082836;28;19920;-81
2022/01/25 12:11:23;;;;;;;;;;;;;;;3.30;100.00;103401.34;5094157;28;19999;-81
2022/01/25 12:14:09;;;;;;;;;;;;;;;3.45;100.00;103411.53;5087984;28;20007;-81
2022/01/25 12:16:43;;;;;;;;;;;;;;;3.48;100.00;103407.59;5097446;28;19928;-81
2022/01/25 12:19:11;;;;;;;;;;;;;;;3.55;100.00;103412.66;5096600;28;19920;-82
2022/01/25 12:21:50;;;;;;;;;;;;;;;3.58;100.00;103405.16;5082063;28;20379;-82
2022/01/25 12:24:18;;;;;;;;;;;;;;;3.60;100.00;103407.94;5079955;28;20007;-82
2022/01/25 12:26:56;;;;;;;;;;;;;;;3.59;100.00;103403.50;5098314;28;20012;-81
2022/01/25 12:29:28;;;;;;;;;;;;;;;3.55;100.00;103396.13;5097611;28;19967;-81
2022/01/25 12:32:14;;;;;;;;;;;;;;;3.43;100.00;103395.72;5077099;28;20011;-80
2022/01/25 12:34:55;;;;;;;;;;;;;;;3.47;100.00;103395.31;5083339;28;20022;-81
2022/01/25 12:37:39;;;;;;;;;;;;;;;3.49;100.00;103390.25;5100813;28;19927;-82
2022/01/25 12:40:24;;;;;;;;;;;;;;;3.58;100.00;103386.00;5102157;28;20379;-81
2022/01/25 12:42:55;;;;;;;;;;;;;;;3.66;100.00;103394.63;5093003;28;19925;-81
2022/01/25 12:45:21;;;;;;;;;;;;;;;3.61;100.00;103383.72;5080466;28;19933;-81
2022/01/25 12:48:02;;;;;;;;;;;;;;;3.64;100.00;103375.31;5076896;28;19921;-81
2022/01/25 12:50:27;;;;;;;;;;;;;;;3.66;100.00;103373.78;5060611;28;20008;-81
2022/01/25 12:52:54;;;;;;;;;;;;;;;3.61;100.00;103372.41;5065083;28;19955;-81
2022/01/25 12:55:34;;;;;;;;;;;;;;;3.56;100.00;103369.31;5080061;28;19924;-81
2022/01/25 12:58:00;;;;;;;;;;;;;;;3.58;100.00;103358.25;5074940;28;19928;-81
2022/01/25 13:00:31;;;;;;;;;;;;;;;3.51;100.00;103361.00;5079254;28;19970;-81
2022/01/25 13:03:20;;;;;;;;;;;;;;;3.50;100.00;103363.47;5079395;28;19962;-80
2022/01/25 13:05:45;;;;;;;;;;;;;;;3.61;100.00;103351.56;5087547;28;19928;-81
2022/01/25 13:08:19;;;;;;;;;;;;;;;3.54;100.00;103350.91;5093986;28;19927;-81
2022/01/25 13:10:45;;;;;;;;;;;;;;;3.46;100.00;103354.38;5071245;28;20014;-81
2022/01/25 13:13:23;;;;;;;;;;;;;;;3.45;100.00;103354.22;5098072;28;19959;-81
2022/01/25 13:15:56;;;;;;;;;;;;;;;3.38;100.00;103357.88;5094058;28;20011;-80
2022/01/25 13:18:22;;;;;;;;;;;;;;;3.39;100.00;103355.44;5088995;28;19920;-80
2022/01/25 13:20:57;;;;;;;;;;;;;;;3.50;100.00;103353.94;5084703;28;19920;-81
2022/01/25 13:23:33;;;;;;;;;;;;;;;3.45;100.00;103344.75;5088796;28;19920;-81
2022/01/25 13:26:10;;;;;;;;;;;;;;;3.44;100.00;103347.19;5084141;28;19920;-81
2022/01/25 13:31:24;;;;;;;;;;;;;;;3.39;100.00;103351.91;5075585;28;19927;-81
2022/01/25 13:33:54;;;;;;;;;;;;;;;3.39;100.00;103352.81;5077060;28;19928;-81
2022/01/25 13:36:20;;;;;;;;;;;;;;;3.31;100.00;103350.16;5079677;28;19924;-81
2022/01/25 13:38:49;;;;;;;;;;;;;;;3.32;100.00;103346.81;5081117;28;19920;-81
2022/01/25 13:41:23;;;;;;;;;;;;;;;3.39;100.00;103344.09;5076642;28;20245;-81
2022/01/25 13:46:32;;;;;;;;;;;;;;;3.35;100.00;103331.50;5085826;28;19921;-81
2022/01/25 13:48:59;;;;;;;;;;;;;;;3.39;100.00;103334.59;5077077;28;20007;-80
2022/01/25 13:51:26;;;;;;;;;;;;;;;3.32;100.00;103336.38;5080651;28;19955;-80
2022/01/25 13:53:54;;;;;;;;;;;;;;;3.27;100.00;103329.78;5076631;28;19978;-81
2022/01/25 13:56:22;;;;;;;;;;;;;;;3.34;100.00;103330.59;5078424;28;19952;-81
2022/01/25 13:58:49;;;;;;;;;;;;;;;3.47;100.00;103332.78;5053687;28;20389;-82
2022/01/25 14:01:18;;;;;;;;;;;;;;;3.48;100.00;103333.69;5057507;28;19924;-80
2022/01/25 14:03:57;;;;;;;;;;;;;;;3.54;100.00;103337.88;5058931;28;19967;-81
2022/01/25 14:06:25;;;;;;;;;;;;;;;3.37;100.00;103338.72;5070357;28;19951;-81
2022/01/25 14:09:06;;;;;;;;;;;;;;;3.44;100.00;103339.38;5076914;28;19951;-80
2022/01/25 14:23:21;;;;;;;;;;;;;;;3.39;100.00;103331.97;5095320;28;20001;-80
2022/01/25 14:25:47;;;;;;;;;;;;;;;3.35;100.00;103332.41;5064409;28;19932;-81
2022/01/25 14:28:21;;;;;;;;;;;;;;;3.41;100.00;103337.34;5079008;28;19920;-81
2022/01/25 14:30:50;;;;;;;;;;;;;;;3.37;100.00;103325.69;5065197;28;19924;-81
2022/01/25 14:33:25;;;;;;;;;;;;;;;3.35;100.00;103331.50;5084325;28;19927;-81
2022/01/25 14:36:08;;;;;;;;;;;;;;;3.32;100.00;103334.69;5097034;28;19924;-82
2022/01/25 14:38:36;;;;;;;;;;;;;;;3.27;100.00;103332.38;5065522;28;19935;-81
2022/01/25 14:41:04;;;;;;;;;;;;;;;3.33;100.00;103327.81;5062245;28;20003;-81